Time;durP1;ratioP1;P1;durP2;ratioP2;P2;SDS_P1;SDS_P2;PMS_P1;PMS_P2;Temp;Humidity;BMP_temperature;BMP_pressure;BME280_temperature;BME280_humidity;BME280_pressure;Samples;Min_cycle;Max_cycle;Signal;HPM_P1;HPM_P2
2022/05/02 00:02:17;;;;;;;22.77;18.77;;;;;;;6.57;nan;102088.84;5014709;28;20121;-42
2022/05/02 00:04:42;;;;;;;23.60;17.02;;;;;;;6.32;nan;102054.72;5014827;28;20050;-41
2022/05/02 00:07:08;;;;;;;21.27;17.25;;;;;;;6.28;nan;102039.88;5014753;28;20042;-46
2022/05/02 00:09:33;;;;;;;21.40;19.10;;;;;;;6.30;nan;102052.13;5014621;28;20160;-41
2022/05/02 00:11:58;;;;;;;23.67;17.70;;;;;;;6.49;nan;102092.28;5014496;28;20034;-46
2022/05/02 00:14:24;;;;;;;20.88;16.90;;;;;;;6.38;nan;102081.78;5014482;28;20029;-44
2022/05/02 00:16:49;;;;;;;21.70;17.63;;;;;;;6.41;nan;102102.72;5014374;28;20384;-48
2022/05/02 00:19:15;;;;;;;18.08;15.95;;;;;;;6.47;nan;102114.94;5014319;28;20099;-41
2022/05/02 00:21:40;;;;;;;22.88;16.98;;;;;;;6.12;nan;102047.69;5014400;28;20194;-44
2022/05/02 00:24:06;;;;;;;21.10;17.20;;;;;;;6.37;nan;102087.88;4996737;28;20030;-45
2022/05/02 00:26:31;;;;;;;20.02;17.15;;;;;;;6.10;nan;102040.69;5014328;28;20393;-46
2022/05/02 00:28:56;;;;;;;18.33;16.38;;;;;;;6.39;nan;102099.22;5014365;28;20034;-48
2022/05/02 00:31:21;;;;;;;20.25;16.33;;;;;;;6.35;nan;102105.31;5014017;28;20042;-48
2022/05/02 00:33:47;;;;;;;22.45;17.73;;;;;;;6.31;nan;102093.06;5013963;28;20520;-45
2022/05/02 00:36:12;;;;;;;20.13;18.00;;;;;;;6.23;nan;102090.44;5012816;28;20390;-46
2022/05/02 00:38:37;;;;;;;18.30;16.38;;;;;;;6.00;nan;102057.19;5014177;28;20073;-44
2022/05/02 00:41:03;;;;;;;21.13;16.48;;;;;;;6.20;nan;102105.22;5013641;28;20085;-45
2022/05/02 00:43:28;;;;;;;21.45;17.48;;;;;;;5.89;nan;102041.47;5013848;28;20088;-45
2022/05/02 00:45:54;;;;;;;22.95;18.10;;;;;;;6.01;nan;102061.56;5013696;28;20037;-46
2022/05/02 00:48:20;;;;;;;18.88;16.88;;;;;;;5.76;nan;102023.91;5014096;28;20070;-47
2022/05/02 00:50:47;;;;;;;19.35;16.55;;;;;;;5.60;nan;102004.66;5014002;28;20589;-44
2022/05/02 00:53:19;;;;;;;21.10;17.30;;;;;;;6.07;nan;102088.59;5013855;28;20034;-43
2022/05/02 00:55:45;;;;;;;23.15;16.80;;;;;;;5.65;nan;102017.75;5013778;28;20536;-45
2022/05/02 00:58:11;;;;;;;17.75;15.63;;;;;;;6.02;nan;102076.34;5013682;28;20057;-43
2022/05/02 01:00:38;;;;;;;17.75;15.85;;;;;;;5.63;nan;102014.28;5013990;28;20046;-42
2022/05/02 01:03:04;;;;;;;19.30;17.15;;;;;;;5.98;nan;102075.47;4996330;28;20030;-44
2022/05/02 01:05:29;;;;;;;19.27;17.10;;;;;;;5.95;nan;102069.38;5013594;28;20041;-46
2022/05/02 01:07:55;;;;;;;18.73;16.63;;;;;;;5.94;nan;102071.09;5012310;28;20033;-44
2022/05/02 01:10:21;;;;;;;19.38;17.13;;;;;;;5.92;nan;102072.84;5013372;28;20120;-44
2022/05/02 01:12:47;;;;;;;18.38;15.95;;;;;;;5.56;nan;102010.72;4995931;28;20444;-42
2022/05/02 01:15:14;;;;;;;19.15;16.08;;;;;;;5.49;nan;102008.94;4979510;28;20038;-45
2022/05/02 01:17:39;;;;;;;19.00;15.60;;;;;;;5.81;nan;102077.06;4995951;28;20037;-49
2022/05/02 01:20:06;;;;;;;17.73;15.70;;;;;;;5.79;nan;102077.91;4995825;28;20456;-46
2022/05/02 01:22:32;;;;;;;18.42;15.52;;;;;;;5.74;nan;102064.84;5013473;28;20362;-43
2022/05/02 01:24:57;;;;;;;18.88;16.10;;;;;;;5.73;nan;102070.03;5013378;28;20040;-44
2022/05/02 01:27:22;;;;;;;20.70;16.70;;;;;;;5.40;nan;102018.47;5013157;28;20034;-46
2022/05/02 01:29:48;;;;;;;18.25;16.30;;;;;;;5.60;nan;102062.09;5013260;28;20030;-45
2022/05/02 01:32:15;;;;;;;19.95;16.30;;;;;;;5.67;nan;102079.59;4995679;28;20063;-44
2022/05/02 01:34:41;;;;;;;19.33;16.63;;;;;;;5.64;nan;102070.84;4995740;28;20140;-42
2022/05/02 01:37:07;;;;;;;19.17;15.73;;;;;;;5.63;nan;102071.72;5011560;28;20510;-49
2022/05/02 01:39:33;;;;;;;21.63;17.65;;;;;;;5.62;nan;102081.31;5012889;28;20046;-44
2022/05/02 01:42:16;;;;;;;20.27;17.42;;;;;;;5.62;nan;102056.91;4995258;28;20456;-44
2022/05/02 01:44:42;;;;;;;19.98;17.13;;;;;;;5.62;nan;102056.91;4995557;28;20496;-43
2022/05/02 01:47:08;;;;;;;23.77;18.48;;;;;;;5.58;nan;102044.69;5013112;28;20069;-43
2022/05/02 01:49:34;;;;;;;18.60;16.67;;;;;;;5.41;nan;102012.34;5013116;28;20026;-45
2022/05/02 01:51:59;;;;;;;19.35;15.85;;;;;;;5.57;nan;102045.56;4994893;28;20396;-45
2022/05/02 01:54:26;;;;;;;20.00;17.45;;;;;;;5.36;nan;102011.44;4995296;28;20055;-51
2022/05/02 01:56:51;;;;;;;19.15;16.65;;;;;;;5.62;nan;102051.69;5012611;28;20542;-45
2022/05/02 01:59:17;;;;;;;21.20;16.77;;;;;;;5.63;nan;102053.44;4995071;28;20041;-50
2022/05/02 02:01:42;;;;;;;21.80;16.60;;;;;;;5.27;nan;102000.94;5012703;28;20139;-44
2022/05/02 02:06:51;;;;;;;19.45;17.10;;;;;;;5.56;nan;102046.41;5012935;28;20053;-46
2022/05/02 02:09:17;;;;;;;19.45;17.05;;;;;;;5.56;nan;102046.41;4978686;28;20033;-45
2022/05/02 02:11:43;;;;;;;20.80;16.65;;;;;;;5.48;nan;102035.06;5012490;28;20393;-47
2022/05/02 02:14:08;;;;;;;19.17;16.13;;;;;;;5.49;nan;102042.88;5012242;28;20036;-44
2022/05/02 02:16:33;;;;;;;18.60;16.65;;;;;;;5.06;nan;101971.19;5012517;28;20080;-47
2022/05/02 02:18:59;;;;;;;20.60;17.13;;;;;;;5.44;nan;102043.72;4994591;28;20034;-50
2022/05/02 02:21:24;;;;;;;21.20;16.95;;;;;;;5.39;nan;102037.59;5012746;28;20203;-45
2022/05/02 02:23:49;;;;;;;19.15;15.93;;;;;;;4.92;nan;101962.38;5012340;28;20064;-46
2022/05/02 02:26:15;;;;;;;19.38;15.70;;;;;;;5.25;nan;102023.56;5012563;28;20489;-41
2022/05/02 02:28:40;;;;;;;22.50;17.55;;;;;;;4.98;nan;101985.03;5012433;28;20125;-47
2022/05/02 02:31:05;;;;;;;19.13;16.75;;;;;;;5.02;nan;101979.00;5012454;28;20041;-48
2022/05/02 02:33:31;;;;;;;23.60;17.45;;;;;;;5.37;nan;102040.16;5012113;28;20416;-45
2022/05/02 02:35:56;;;;;;;19.35;16.83;;;;;;;5.37;nan;102048.00;5012418;28;20041;-43
2022/05/02 02:38:21;;;;;;;18.65;16.13;;;;;;;4.95;nan;101983.28;5011973;28;20541;-41
2022/05/02 02:40:47;;;;;;;21.17;16.85;;;;;;;4.93;nan;101977.16;5012282;28;20050;-46
2022/05/02 02:43:12;;;;;;;19.15;15.68;;;;;;;4.96;nan;101990.22;5012282;28;20370;-44
2022/05/02 02:45:38;;;;;;;19.85;17.02;;;;;;;4.82;nan;101970.09;5012275;28;20062;-46
2022/05/02 02:48:03;;;;;;;20.98;16.90;;;;;;;5.19;nan;102041.78;4994243;28;20110;-45
2022/05/02 02:50:29;;;;;;;23.15;17.17;;;;;;;5.18;nan;102033.06;5011876;28;20388;-42
2022/05/02 02:52:54;;;;;;;22.02;17.15;;;;;;;4.73;nan;101957.84;4994662;28;20048;-42
2022/05/02 02:55:19;;;;;;;20.85;16.67;;;;;;;4.74;nan;101962.22;5012248;28;20042;-49
2022/05/02 02:57:45;;;;;;;18.52;16.20;;;;;;;4.80;nan;101977.06;5011817;28;20034;-43
2022/05/02 03:00:11;;;;;;;24.73;18.15;;;;;;;5.15;nan;102032.16;5011993;28;20096;-51
2022/05/02 03:02:37;;;;;;;23.20;18.90;;;;;;;4.70;nan;101951.75;5012177;28;20033;-46
2022/05/02 03:07:47;;;;;;;20.35;17.60;;;;;;;5.06;nan;102012.06;5015966;28;20073;-50
2022/05/02 03:10:12;;;;;;;24.52;18.30;;;;;;;5.11;nan;102031.25;4998475;28;20034;-44
2022/05/02 03:12:37;;;;;;;24.50;20.50;;;;;;;5.08;nan;102019.06;5015861;28;20030;-47
2022/05/02 03:15:03;;;;;;;20.98;18.20;;;;;;;5.08;nan;102016.44;5015822;28;20029;-44
2022/05/02 03:17:28;;;;;;;21.98;17.55;;;;;;;4.71;nan;101962.19;5015378;28;20044;-46
2022/05/02 03:19:54;;;;;;;23.73;18.10;;;;;;;5.04;nan;102021.63;5015108;28;20115;-46
2022/05/02 03:22:19;;;;;;;22.80;19.08;;;;;;;4.97;nan;102012.00;5015389;28;20516;-40
2022/05/02 03:24:44;;;;;;;23.52;19.17;;;;;;;4.66;nan;101952.56;4998133;28;20038;-47
2022/05/02 03:27:09;;;;;;;24.25;18.88;;;;;;;4.97;nan;102020.69;4998105;28;20089;-42
2022/05/02 03:29:36;;;;;;;24.55;19.92;;;;;;;4.78;nan;101990.09;5015547;28;20065;-45
2022/05/02 03:32:01;;;;;;;24.77;18.80;;;;;;;4.90;nan;102010.19;5015503;28;20034;-48
2022/05/02 03:34:27;;;;;;;23.65;18.15;;;;;;;4.84;nan;102024.06;5015088;28;20096;-45
2022/05/02 03:36:52;;;;;;;22.95;18.15;;;;;;;4.37;nan;101939.25;5015040;28;20034;-49
2022/05/02 03:39:17;;;;;;;23.58;19.45;;;;;;;4.80;nan;102013.56;4997734;28;20095;-44
2022/05/02 03:41:43;;;;;;;25.73;19.10;;;;;;;4.68;nan;102001.28;5015019;28;20085;-44
2022/05/02 03:44:08;;;;;;;24.80;19.33;;;;;;;4.74;nan;102019.59;5015215;28;20034;-46
2022/05/02 03:46:33;;;;;;;27.60;20.77;;;;;;;4.73;nan;102011.78;5015054;28;20034;-47
2022/05/02 03:49:00;;;;;;;25.95;19.48;;;;;;;4.75;nan;102015.25;5015068;28;20029;-44
2022/05/02 03:51:26;;;;;;;22.92;19.52;;;;;;;4.63;nan;102000.38;5014776;28;20413;-48
2022/05/02 03:53:52;;;;;;;23.95;19.35;;;;;;;4.71;nan;102016.06;5014996;28;20038;-48
2022/05/02 03:56:17;;;;;;;24.30;20.25;;;;;;;4.68;nan;102009.09;5015203;28;20042;-45
2022/05/02 03:58:42;;;;;;;26.58;20.45;;;;;;;4.68;nan;102018.66;5014888;28;20038;-45
2022/05/02 04:01:08;;;;;;;26.33;19.70;;;;;;;4.66;nan;102016.03;5014614;28;20096;-46
2022/05/02 04:03:33;;;;;;;24.65;18.90;;;;;;;4.26;nan;101948.69;5014649;28;20536;-48
2022/05/02 04:05:58;;;;;;;26.08;19.45;;;;;;;4.63;nan;102012.53;5014610;28;20400;-48
2022/05/02 04:08:24;;;;;;;27.52;21.13;;;;;;;4.21;nan;101942.53;5013616;28;20097;-45
2022/05/02 04:10:49;;;;;;;24.35;20.33;;;;;;;4.63;nan;102021.22;4997290;28;20541;-45
2022/05/02 04:13:14;;;;;;;28.38;20.75;;;;;;;4.52;nan;101994.16;5014713;28;20401;-45
2022/05/02 04:15:40;;;;;;;29.30;20.92;;;;;;;4.58;nan;102017.72;5014340;28;20092;-49
2022/05/02 04:18:06;;;;;;;25.25;20.42;;;;;;;4.28;nan;101957.41;4996995;28;20480;-48
2022/05/02 04:20:31;;;;;;;29.42;22.30;;;;;;;4.68;nan;102035.19;5014334;28;20111;-44
2022/05/02 04:22:56;;;;;;;28.70;21.67;;;;;;;4.41;nan;101974.91;5014550;28;20034;-43
2022/05/02 04:25:22;;;;;;;27.55;22.25;;;;;;;4.76;nan;102022.25;5013247;28;20041;-49
2022/05/02 04:27:47;;;;;;;27.58;21.58;;;;;;;4.64;nan;101990.81;5014436;28;20537;-48
2022/05/02 04:30:12;;;;;;;36.25;23.33;;;;;;;4.53;nan;101969.81;5014339;28;20416;-43
2022/05/02 04:32:38;;;;;;;32.08;23.15;;;;;;;4.64;nan;101978.63;5014021;28;20038;-45
2022/05/02 04:35:04;;;;;;;31.30;22.88;;;;;;;4.97;nan;102025.91;5014004;28;20038;-45
2022/05/02 04:37:30;;;;;;;29.95;23.30;;;;;;;5.01;nan;102034.66;4996357;28;20034;-49
2022/05/02 04:39:55;;;;;;;27.85;22.90;;;;;;;5.02;nan;102029.44;5013800;28;20072;-44
2022/05/02 04:42:21;;;;;;;30.48;21.92;;;;;;;4.97;nan;102015.47;5014002;28;20040;-45
2022/05/02 04:44:46;;;;;;;29.58;22.15;;;;;;;4.82;nan;101989.25;5013986;28;20041;-42
2022/05/02 04:47:12;;;;;;;26.13;22.08;;;;;;;4.69;nan;101969.13;4996467;28;20038;-45
2022/05/02 04:49:37;;;;;;;26.30;20.98;;;;;;;5.08;nan;102032.09;5013773;28;20477;-46
2022/05/02 04:52:03;;;;;;;27.70;22.17;;;;;;;4.72;nan;101971.78;5014074;28;20060;-43
2022/05/02 04:54:28;;;;;;;27.88;22.33;;;;;;;5.17;nan;102028.69;5013447;28;20038;-43
2022/05/02 04:56:53;;;;;;;30.80;24.10;;;;;;;4.93;nan;101969.34;5013874;28;20037;-46
2022/05/02 04:59:18;;;;;;;30.30;22.55;;;;;;;5.31;nan;102026.22;5013748;28;20071;-44
2022/05/02 05:01:44;;;;;;;32.58;23.30;;;;;;;5.14;nan;101986.91;4996285;28;20396;-44
2022/05/02 05:04:09;;;;;;;29.20;23.45;;;;;;;5.41;nan;102028.91;5013592;28;20400;-45
2022/05/02 05:06:35;;;;;;;34.10;23.77;;;;;;;5.17;nan;101978.25;5013544;28;20469;-43
2022/05/02 05:09:00;;;;;;;29.08;23.13;;;;;;;5.41;nan;102014.97;4980097;28;20386;-49
2022/05/02 05:11:41;;;;;;;32.25;22.50;;;;;;;5.56;nan;102035.97;5013835;28;20450;-51
2022/05/02 05:17:39;;;;;;;28.23;21.83;;;;;;;5.68;nan;102036.06;5012810;28;20052;-44
2022/05/02 05:20:14;;;;;;;27.17;21.95;;;;;;;5.68;nan;102028.22;5013204;28;20041;-46
2022/05/02 05:22:48;;;;;;;27.75;22.08;;;;;;;5.79;nan;102034.38;5012089;28;20112;-42
2022/05/02 05:25:33;;;;;;;28.65;23.00;;;;;;;5.84;nan;102030.03;5012666;28;20032;-45
2022/05/02 05:28:20;;;;;;;32.58;22.30;;;;;;;5.93;nan;102029.25;4995291;28;20122;-47
2022/05/02 05:30:48;;;;;;;27.88;22.08;;;;;;;6.00;nan;102025.81;5013090;28;20032;-46
2022/05/02 05:33:34;;;;;;;26.13;21.00;;;;;;;6.11;nan;102034.59;4995489;28;20029;-41
2022/05/02 05:36:14;;;;;;;24.08;21.15;;;;;;;6.20;nan;102022.44;5013194;28;20038;-44
2022/05/02 05:38:51;;;;;;;27.63;21.65;;;;;;;6.36;nan;102031.22;4995427;28;20066;-48
2022/05/02 05:41:38;;;;;;;24.20;20.52;;;;;;;6.52;nan;102030.41;5012885;28;20057;-45
2022/05/02 05:44:14;;;;;;;24.88;20.85;;;;;;;6.66;nan;102033.03;5012881;28;20026;-49
2022/05/02 05:46:49;;;;;;;23.20;20.83;;;;;;;6.81;nan;102030.47;5013062;28;20030;-44
2022/05/02 05:49:47;;;;;;;22.05;19.73;;;;;;;6.93;nan;102029.63;5012940;28;20057;-46
2022/05/02 05:52:23;;;;;;;27.65;19.55;;;;;;;7.04;nan;102030.50;5011581;28;20109;-47
2022/05/02 05:55:13;;;;;;;23.60;19.35;;;;;;;7.19;nan;102030.50;5013008;28;20037;-44
2022/05/02 05:57:44;;;;;;;19.65;17.48;;;;;;;7.36;nan;102031.38;5012952;28;20045;-47
2022/05/02 06:00:11;;;;;;;20.50;18.48;;;;;;;7.49;nan;102024.41;5012645;28;20091;-41
2022/05/02 06:03:08;;;;;;;21.83;17.25;;;;;;;7.60;nan;102040.97;4994969;28;20450;-44
2022/05/02 06:05:45;;;;;;;17.55;15.70;;;;;;;7.34;nan;101968.53;5012599;28;20073;-47
2022/05/02 06:08:14;;;;;;;18.00;15.57;;;;;;;7.88;nan;102042.69;5012649;28;20031;-46
2022/05/02 06:10:41;;;;;;;17.15;15.43;;;;;;;8.05;nan;102035.66;5012640;28;20477;-43
2022/05/02 06:13:08;;;;;;;18.13;15.40;;;;;;;8.11;nan;102024.25;5012430;28;20370;-42
2022/05/02 06:18:28;;;;;;;17.35;15.75;;;;;;;8.38;nan;102051.28;4997701;28;20041;-43
2022/05/02 06:20:56;;;;;;;16.73;14.95;;;;;;;8.53;nan;102068.72;5012567;28;20049;-45
2022/05/02 06:23:25;;;;;;;17.27;15.00;;;;;;;8.63;nan;102054.69;5012386;28;20060;-42
2022/05/02 06:25:53;;;;;;;15.73;14.07;;;;;;;8.37;nan;101999.72;4995361;28;20065;-43
2022/05/02 06:28:19;;;;;;;16.45;14.25;;;;;;;8.76;nan;102040.59;5012051;28;20030;-46
2022/05/02 06:30:49;;;;;;;16.50;14.63;;;;;;;9.05;nan;102070.16;4995021;28;20041;-45
2022/05/02 06:33:14;;;;;;;18.27;14.45;;;;;;;9.13;nan;102049.13;5013666;28;20029;-47
2022/05/02 06:36:17;;;;;;;16.00;14.40;;;;;;;9.37;nan;102064.66;5014215;28;20045;-45
2022/05/02 06:39:19;;;;;;;14.93;13.43;;;;;;;9.54;nan;102075.06;5017353;28;20029;-46
2022/05/02 06:41:59;;;;;;;15.68;13.75;;;;;;;9.71;nan;102072.28;4939206;29;20142;-44
2022/05/02 06:45:01;;;;;;;15.88;14.27;;;;;;;9.53;nan;102002.34;5026772;28;20060;-44
2022/05/02 06:47:48;;;;;;;14.60;13.13;;;;;;;10.05;nan;102079.81;5018117;28;20068;-45
2022/05/02 06:50:17;;;;;;;15.10;13.50;;;;;;;9.88;nan;102001.97;5025821;28;20030;-46
2022/05/02 06:52:56;;;;;;;15.70;14.10;;;;;;;10.23;nan;102030.53;4997709;28;20113;-46
2022/05/02 06:55:36;;;;;;;14.27;12.85;;;;;;;10.67;nan;102089.66;5015470;28;20468;-44
2022/05/02 06:58:35;;;;;;;15.57;13.93;;;;;;;10.79;nan;102079.84;5015950;28;20452;-45
2022/05/02 07:01:15;;;;;;;14.02;12.52;;;;;;;11.01;nan;102086.53;5020243;28;20384;-43
2022/05/02 07:03:47;;;;;;;13.30;11.93;;;;;;;10.86;nan;102031.47;5035179;28;20060;-46
2022/05/02 07:06:56;;;;;;;13.75;12.15;;;;;;;11.09;nan;102048.63;5034487;28;20045;-44
2022/05/02 07:09:24;;;;;;;13.52;12.15;;;;;;;11.60;nan;102082.97;5021776;28;20567;-48
2022/05/02 07:12:06;;;;;;;13.90;12.50;;;;;;;11.97;nan;102102.56;5034454;28;20032;-44
2022/05/02 07:15:09;;;;;;;13.77;12.45;;;;;;;12.20;nan;102042.28;5035371;28;20037;-43
2022/05/02 07:17:44;;;;;;;13.57;12.18;;;;;;;13.34;nan;102108.50;5035352;28;20033;-46
2022/05/02 07:20:31;;;;;;;13.57;11.02;;;;;;;14.03;nan;102113.84;5017607;28;20033;-44
2022/05/02 07:23:11;;;;;;;12.65;10.60;;;;;;;14.74;nan;102141.00;5035550;28;20029;-45
2022/05/02 07:25:39;;;;;;;11.32;10.10;;;;;;;15.25;nan;102143.88;5035370;28;20106;-44
2022/05/02 07:28:46;;;;;;;15.18;10.70;;;;;;;15.19;nan;102142.28;5035032;28;20034;-44
2022/05/02 07:31:21;;;;;;;14.18;10.68;;;;;;;14.58;nan;102054.91;5034616;28;20044;-43
2022/05/02 07:33:52;;;;;;;11.88;9.40;;;;;;;15.08;nan;102095.81;5035185;28;20026;-44
2022/05/02 07:36:19;;;;;;;11.35;10.25;;;;;;;15.94;nan;102146.06;5034981;28;20464;-45
2022/05/02 07:38:47;;;;;;;12.65;8.85;;;;;;;16.00;nan;102137.00;5017325;28;20061;-43
2022/05/02 07:41:22;;;;;;;9.75;8.75;;;;;;;15.93;nan;102093.91;5033308;28;20046;-39
2022/05/02 07:44:08;;;;;;;11.55;9.77;;;;;;;16.40;nan;102136.50;5034746;28;20080;-43
2022/05/02 07:46:38;;;;;;;10.05;9.10;;;;;;;17.01;nan;102104.06;5019379;28;20053;-42
2022/05/02 07:49:07;;;;;;;10.70;9.07;;;;;;;17.24;nan;102149.28;5033833;28;20034;-42
2022/05/02 07:51:33;;;;;;;10.60;9.70;;;;;;;17.18;nan;102132.66;5034871;28;20036;-41
2022/05/02 07:54:00;;;;;;;9.32;8.43;;;;;;;17.72;nan;102148.22;5017152;28;20061;-44
2022/05/02 07:56:30;;;;;;;10.77;9.02;;;;;;;;;;5034666;28;20057;-42
2022/05/02 07:58:57;;;;;;;11.45;9.75;;;;;;;;;;5034491;28;20464;-42
2022/05/02 08:01:23;;;;;;;9.95;8.80;;;;;;;;;;5034452;28;20028;-45
2022/05/02 08:03:49;;;;;;;10.00;9.00;;;;;;;;;;5034673;28;20029;-44
2022/05/02 08:06:18;;;;;;;10.07;9.02;;;;;;;;;;5034347;28;20045;-42
2022/05/02 08:08:52;;;;;;;10.43;9.40;;;;;;;;;;5034582;28;20092;-45
2022/05/02 08:11:22;;;;;;;12.27;10.18;;;;;;;;;;5034192;28;20510;-46
2022/05/02 08:13:53;;;;;;;10.15;9.13;;;;;;;;;;5034299;28;20033;-44
2022/05/02 08:16:18;;;;;;;;;;;;;;;;;;5034642;28;20033;-44
2022/05/02 08:19:01;;;;;;;12.55;9.20;;;;;;;;;;5034453;28;19909;-48
2022/05/02 08:21:29;;;;;;;9.63;8.60;;;;;;;;;;5034302;28;20033;-44
2022/05/02 08:27:16;;;;;;;9.57;8.68;;;;;;;;;;5034473;28;20104;-43
2022/05/02 08:29:41;;;;;;;10.55;9.43;;;;;;;;;;5034048;28;20025;-47
2022/05/02 08:32:10;;;;;;;10.50;9.43;;;;;;;;;;5034032;28;20464;-43
2022/05/02 08:34:38;;;;;;;13.80;8.40;;;;;;;;;;5033734;28;20499;-42
2022/05/02 08:37:06;;;;;;;10.85;9.18;;;;;;;;;;5033890;28;20041;-44
2022/05/02 08:39:36;;;;;;;11.90;8.52;;;;;;;;;;5034050;28;20037;-44
2022/05/02 08:42:14;;;;;;;9.97;8.40;;;;;;;;;;5033361;28;20045;-44
2022/05/02 08:44:57;;;;;;;8.65;7.75;;;;;;;;;;5033633;28;20029;-47
2022/05/02 08:47:40;;;;;;;9.48;8.60;;;;;;;;;;5033786;28;20033;-48
2022/05/02 08:50:09;;;;;;;8.75;7.85;;;;;;;;;;5033516;28;20483;-43
2022/05/02 08:52:40;;;;;;;8.63;7.82;;;;;;;;;;5033539;28;20388;-49
2022/05/02 08:55:09;;;;;;;7.63;6.80;;;;;;;;;;5033154;28;20551;-47
2022/05/02 08:57:55;;;;;;;9.45;7.28;;;;;;;;;;5033240;28;20030;-44
2022/05/02 09:00:20;;;;;;;9.55;7.47;;;;;;;;;;5033114;28;20117;-43
2022/05/02 09:03:04;;;;;;;6.80;6.20;;;;;;;;;;5032399;28;20404;-46
2022/05/02 09:05:45;;;;;;;7.78;7.05;;;;;;;;;;5033061;28;20175;-46
2022/05/02 09:08:16;;;;;;;7.93;7.13;;;;;;;;;;5033435;28;20033;-45
2022/05/02 09:10:41;;;;;;;7.20;6.50;;;;;;;;;;5015745;28;20026;-47
2022/05/02 09:13:24;;;;;;;8.20;6.57;;;;;;;20.00;nan;102132.28;5033319;28;20082;-45
2022/05/02 09:16:05;;;;;;;7.78;6.97;;;;;;;20.06;nan;102134.63;5015172;28;20032;-44
2022/05/02 09:18:42;;;;;;;7.30;6.65;;;;;;;20.43;nan;102122.91;5032908;28;20063;-43
2022/05/02 09:21:37;;;;;;;8.32;7.53;;;;;;;20.63;nan;102069.22;5015942;28;20045;-44
2022/05/02 09:24:24;;;;;;;7.35;6.65;;;;;;;21.19;nan;102116.09;5033746;28;20080;-44
2022/05/02 09:27:13;;;;;;;10.52;6.78;;;;;;;21.02;nan;102118.78;5033288;28;20136;-45
2022/05/02 09:30:16;;;;;;;7.53;6.93;;;;;;;20.90;nan;102117.66;5033359;28;20120;-44
2022/05/02 09:32:47;;;;;;;8.70;7.80;;;;;;;20.84;nan;102107.28;5032983;28;20029;-45
2022/05/02 09:35:30;;;;;;;7.78;7.07;;;;;;;21.06;nan;102109.66;5032554;28;20033;-46
2022/05/02 09:37:58;;;;;;;10.82;7.93;;;;;;;21.38;nan;102081.06;5032920;28;20099;-48
2022/05/02 09:40:37;;;;;;;7.47;6.68;;;;;;;21.55;nan;102095.22;5032619;28;20037;-45
2022/05/02 09:43:20;;;;;;;7.47;6.78;;;;;;;22.28;nan;102099.75;5015485;28;20481;-43
2022/05/02 09:52:37;;;;;;;6.30;5.70;;;;;;;22.60;nan;102096.88;5032534;28;20400;-43
2022/05/02 09:58:00;;;;;;;7.57;5.97;;;;;;;22.40;nan;102093.63;5032781;28;19982;-48
2022/05/02 10:03:33;;;;;;;8.98;5.95;;;;;;;21.88;nan;102046.84;5032209;28;20044;-47
2022/05/02 10:06:04;;;;;;;7.20;6.15;;;;;;;21.29;nan;102053.00;5031963;28;20541;-44
2022/05/02 10:08:45;;;;;;;6.85;6.25;;;;;;;21.50;nan;102099.13;5032077;28;20033;-48
2022/05/02 10:11:44;;;;;;;9.18;7.15;;;;;;;21.70;nan;102109.53;5014740;28;20028;-42
2022/05/02 10:14:15;;;;;;;7.03;6.15;;;;;;;22.51;nan;102100.16;5031564;28;20044;-44
2022/05/02 10:16:48;;;;;;;8.38;6.70;;;;;;;21.95;nan;102052.69;5034249;28;20041;-45
2022/05/02 10:19:30;;;;;;;6.82;6.15;;;;;;;22.81;nan;102103.63;5030713;28;20103;-48
2022/05/02 10:22:26;;;;;;;9.00;6.85;;;;;;;22.69;nan;102037.28;5014471;28;20107;-44
2022/05/02 10:25:41;;;;;;;6.68;5.90;;;;;;;23.53;nan;102092.63;5029462;28;20322;-45
2022/05/02 10:28:14;;;;;;;8.50;6.68;;;;;;;23.79;nan;102088.22;4924571;29;20055;-46
2022/05/02 10:30:49;;;;;;;7.35;6.63;;;;;;;23.56;nan;102078.97;4932103;29;20515;-43
2022/05/02 10:33:15;;;;;;;8.18;6.82;;;;;;;23.65;nan;102083.75;4988509;28;20401;-47
2022/05/02 10:35:45;;;;;;;9.10;6.75;;;;;;;23.14;nan;102080.00;5029688;28;20050;-45
2022/05/02 10:38:13;;;;;;;7.18;6.38;;;;;;;22.73;nan;102046.88;5013397;28;20039;-45
2022/05/02 10:40:41;;;;;;;8.35;7.55;;;;;;;22.94;nan;102093.84;5010223;28;20061;-46
2022/05/02 10:43:08;;;;;;;10.05;7.55;;;;;;;23.57;nan;102090.59;5027945;28;20124;-43
2022/05/02 10:45:36;;;;;;;7.38;6.60;;;;;;;23.64;nan;102065.03;5027995;28;20038;-48
2022/05/02 10:48:13;;;;;;;8.10;7.22;;;;;;;24.15;nan;102045.34;5028461;28;20029;-45
2022/05/02 10:50:39;;;;;;;8.48;7.57;;;;;;;23.71;nan;102034.94;5031395;28;20108;-50
2022/05/02 10:53:32;;;;;;;7.30;6.70;;;;;;;24.01;nan;102081.25;5031266;28;20165;-45
2022/05/02 10:56:22;;;;;;;7.63;6.53;;;;;;;23.66;nan;102080.09;5011753;28;20476;-49
2022/05/02 10:58:48;;;;;;;6.63;6.03;;;;;;;23.11;nan;102071.25;5031064;28;20028;-45
2022/05/02 11:01:51;;;;;;;7.82;6.80;;;;;;;23.27;nan;102020.91;5012906;28;20030;-50
2022/05/02 11:04:27;;;;;;;11.90;7.32;;;;;;;24.35;nan;102070.84;4981436;28;20037;-47
2022/05/02 11:07:07;;;;;;;9.10;8.13;;;;;;;24.46;nan;102073.66;5031562;28;20080;-43
2022/05/02 11:09:41;;;;;;;8.98;7.82;;;;;;;24.78;nan;102063.25;5031713;28;20038;-46
2022/05/02 11:12:11;;;;;;;9.23;8.07;;;;;;;25.19;nan;102061.94;5030513;28;20392;-46
2022/05/02 11:14:39;;;;;;;8.43;7.55;;;;;;;25.16;nan;102015.50;5031684;28;20064;-47
2022/05/02 11:17:18;;;;;;;8.50;7.70;;;;;;;24.69;nan;102054.03;5031538;28;20046;-49
2022/05/02 11:23:36;;;;;;;8.40;7.30;;;;;;;24.22;nan;102027.81;5031968;28;20099;-45
2022/05/02 11:26:12;;;;;;;8.52;7.72;;;;;;;24.88;nan;102054.41;4990303;28;20424;-46
2022/05/02 11:28:53;;;;;;;8.82;6.47;;;;;;;24.68;nan;102056.81;5034210;28;20034;-48
2022/05/02 11:31:35;;;;;;;8.43;6.68;;;;;;;24.58;nan;102009.00;5035094;28;20033;-44
2022/05/02 11:34:10;;;;;;;8.48;6.25;;;;;;;25.38;nan;102047.09;5035222;28;20026;-45
2022/05/02 11:36:43;;;;;;;7.78;7.00;;;;;;;24.37;nan;102007.03;5017212;28;20045;-45
2022/05/02 11:39:09;;;;;;;8.23;7.53;;;;;;;24.95;nan;102004.53;5035038;28;20033;-45
2022/05/02 11:41:42;;;;;;;8.50;7.53;;;;;;;25.26;nan;102048.88;5017186;28;20060;-47
2022/05/02 11:44:09;;;;;;;9.02;7.50;;;;;;;24.35;nan;102044.78;5034737;28;20033;-46
2022/05/02 11:46:45;;;;;;;10.02;8.32;;;;;;;23.28;nan;102007.41;5033855;28;20032;-45
2022/05/02 11:49:14;;;;;;;7.30;6.68;;;;;;;24.07;nan;102043.16;5034982;28;20037;-46
2022/05/02 11:51:50;;;;;;;6.97;6.30;;;;;;;24.82;nan;102054.00;5017206;28;20025;-47
2022/05/02 11:54:27;;;;;;;9.52;7.55;;;;;;;25.38;nan;102042.59;5034843;28;20037;-45
2022/05/02 11:56:55;;;;;;;7.90;7.15;;;;;;;25.67;nan;101997.25;5034764;28;20043;-49
2022/05/02 11:59:22;;;;;;;8.93;8.02;;;;;;;26.27;nan;102015.88;5034756;28;20041;-46
2022/05/02 12:01:49;;;;;;;7.80;7.03;;;;;;;25.46;nan;102044.69;5034721;28;20457;-46
2022/05/02 12:04:19;;;;;;;9.20;8.13;;;;;;;25.88;nan;102041.44;5033339;28;20099;-44
2022/05/02 12:06:57;;;;;;;9.80;8.40;;;;;;;25.82;nan;101990.66;5034778;28;20045;-45
2022/05/02 12:09:23;;;;;;;7.13;6.40;;;;;;;25.36;nan;102049.06;5033245;28;20029;-46
2022/05/02 12:11:54;;;;;;;7.45;6.43;;;;;;;24.92;nan;102003.88;5034652;28;20034;-45
2022/05/02 12:14:21;;;;;;;7.55;6.80;;;;;;;25.34;nan;102053.69;5034560;28;20037;-45
2022/05/02 12:17:07;;;;;;;9.02;6.78;;;;;;;24.80;nan;102039.75;5016855;28;20060;-48
2022/05/02 12:19:33;;;;;;;9.30;7.75;;;;;;;24.47;nan;102005.38;5034048;28;20361;-46
2022/05/02 12:22:28;;;;;;;7.13;6.40;;;;;;;24.87;nan;102031.16;5016896;28;20068;-46
2022/05/02 12:25:03;;;;;;;7.82;7.03;;;;;;;24.65;nan;101995.97;5016442;28;20384;-45
2022/05/02 12:27:31;;;;;;;8.90;8.00;;;;;;;24.46;nan;102023.34;5034032;28;20461;-46
2022/05/02 12:29:58;;;;;;;8.02;6.85;;;;;;;24.77;nan;101989.69;5034109;28;20116;-45
2022/05/02 12:32:30;;;;;;;10.68;6.50;;;;;;;25.00;nan;101990.69;5034176;28;20045;-45
2022/05/02 12:34:56;;;;;;;7.40;6.70;;;;;;;24.62;nan;102025.81;5016623;28;20541;-45
2022/05/02 12:37:33;;;;;;;8.32;6.88;;;;;;;25.11;nan;102036.56;5032537;28;20128;-47
2022/05/02 12:40:08;;;;;;;8.68;6.80;;;;;;;25.17;nan;102031.56;5033782;28;20544;-45
2022/05/02 12:42:47;;;;;;;8.77;6.43;;;;;;;25.42;nan;102018.97;5033530;28;20037;-44
2022/05/02 12:45:15;;;;;;;8.20;7.43;;;;;;;24.60;nan;101984.69;5033802;28;20465;-46